Create Custom Reports and Graphics: Custom Report

North/Central Map

Map

15 Minute Data

South County Map

Map

15 Minute Data

Northern Sonoma County Latest

13 Stations

15 Minute Data | America/Los_Angeles
as of 11/28/20 12:43 PM PST
Station Date Time Temp (°F) RH (%) Dew Pt (°F) Wind Spd (mph) Wind Dir (°) Wind Gust (mph) Latest Rain (In) Daily Rain (In) Daily Min Temp (°F) Daily Max Temp (°F)
Rockpile Upper (Cooley) 11/28/20 1230 60.2   2.3 28   11 27.0   10.3 4.4 SSE | 162 8.8   4.8 0.00 0.00 44.5   4.3 61.1   1.9
Rockpile Lower (Cooley) 11/28/20 1215 62.2   4.7 27   7 28.2   3.4 1.6 S | 185 4.5   0.8 0.00 0.00 45.0   2.8 63.1   4.8
Cloverdale-East (Ranch 83) 11/28/20 1230 60.1   2.5 31   6 29.0   3.4 2.3 NW | 324 5.3   1.5 0.00 0.00 29.1   8.1 61.1   2.5
Cloverdale-SE (Ranch 38) 11/28/20 1230 62.9   0.5 27   3 28.8   2.2 1.9 W | 268 4.4   1.5 0.00 0.00 35.5   2.4 64.8   0.1
Geyserville-North (Hoffman) 11/28/20 1230 60.9   1.9 28   6 27.9   3.9 1.9 W | 267 3.9   0.2 0.00 0.00 26.8   2.0 61.3   2.5
Geyserville (Ranch 3) 11/28/20 1230 60.8   2.8 27   8 27.0   5.8 1.4 NW | 312 4.4   2.1 0.00 0.00 28.9   2.1 61.4   2.6
Geyserville-East (Ranch 40) 11/28/20 1230 63.8   0.2 26   1 28.4   1.3 1.7 NW | 307 4.9   1.2 0.00 0.00 37.9   1.8 66.7   0.4
Geyserville-South (Nervo Station) 11/28/20 1230 64.4   0.3 27   2 29.5   1.8 1.6 NNE | 33 4.8   1.3 0.00 0.00 32.2   3.3 64.7   0.2
Lytton (River Oaks) 11/28/20 1230 62.6   3.1 38   13 36.1   8.0 1.0 SSE | 167 2.5   0.6 0.00 0.00 27.0   1.3 63.2   3.5
Jimtown-North (Piccolo-R15) 11/28/20 1230 62.0   2.1 25   5 25.5   3.1 1.4 WNW | 286 3.9   0.2 0.00 0.00 23.9   2.5 62.8   1.9
Jimtown-NE (Red Fan) 11/28/20 1230 63.0   1.7 25   5 26.8   3.9 1.7 SW | 228 4.5   1.1 0.00 0.00 26.5   2.0 63.4   1.8
HWY 128/Chalk Hill Rd (Landslide) 11/28/20 1230 61.8   3.5 30   8 30.5   5.0 2.7 WNW | 287 6.4   1.6 0.00 0.00 25.7   2.4 63.0   3.1
Lower Dry Creek Valley 11/28/20 1230 63.5   1.7 24   2 26.2   0.1 1.7 S | 186 3.1   0.8 0.00 0.00 27.8   1.3 64.1   2.8
Max     64.4 38 36.1 4.4 - 8.8 0.00 0.00 45.0 66.7
Avg     62.2 28 28.5 1.9 - 4.7 0.00 - - -
Min     60.1 24 25.5 1.0 - 2.5 0.00 0.00 23.9 61.1

Central Sonoma County Latest

26 Stations

15 Minute Data | America/Los_Angeles
as of 11/28/20 12:43 PM PST
Station Date Time Temp (°F) RH (%) Dew Pt (°F) Wind Spd (mph) Wind Dir (°) Wind Gust (mph) Latest Rain (In) Daily Rain (In) Daily Min Temp (°F) Daily Max Temp (°F)
Healdsburg-South (Sodini) 11/28/20 1230 62.1   1.3 28   3 28.3   1.8 2.0 W | 261 5.1   0.0 0.00 0.00 28.9   1.3 62.9   1.3
Windsor-NW (Ranch 8) 11/28/20 1230 66.0   1.5 28   1 31.7   2.0 0.9 N | 351 3.7   1.5 0.00 0.00 33.2   1.4 68.4   1.6
Windsor-East (Ranch 16) 11/28/20 1230 61.6   1.6 30   5 29.7   3.3 1.5 WSW | 250 3.9   1.4 0.00 0.00 28.2   1.9 62.8   0.8
Mark West-North (Ranch 14) 11/28/20 1230 61.2   2.4 31   8 30.2   5.7 1.4 WSW | 248 3.6   0.6 0.00 0.00 27.1   2.7 61.9   2.7
Windsor-SE (Silk Rd) 11/28/20 1230 61.4   2.3 28   3 28.1   1.1 2.0 W | 259 4.8   1.1 0.00 0.00 25.3   1.6 62.3   1.8
Fulton-NW (Ranch 5) 11/28/20 1230 59.1   2.6 35   7 31.6   3.1 2.9 NW | 306 5.8   0.7 0.00 0.00 27.8   0.9 60.0   2.1
Windsor-South (Laughlin Rd) 11/28/20 1230 61.2   1.1 - - - - - 0.00 0.00 28.9   1.5 62.3   0.7
Fulton-SE (Barnes Rd) 11/28/20 1230 58.5   2.7 35   6 31.0   2.3 2.2 W | 274 4.4   1.6 0.00 0.00 27.2   1.8 59.0   2.5
Fulton-SW (Ranch 21) 11/28/20 1230 59.9   2.7 34   8 31.7   4.3 1.7 NW | 311 4.8   0.1 0.00 0.00 27.9   1.7 61.3   1.9
Santa Rosa-NW (Goldfields) 11/28/20 1230 64.0   1.9 31   7 32.5   4.4 1.6 WNW | 282 4.6   0.1 0.00 0.00 28.7   2.0 64.7   2.5
NW Santa Rosa (Piner Road) 11/28/20 1230 58.1   1.8 37   4 32.0   1.3 1.4 NNW | 329 4.6   1.2 0.00 0.00 26.2   1.3 58.6   2.1
River Rd South (Denner Ranch) 11/28/20 1230 60.4   2.4 34   7 31.8   3.8 1.4 W | 261 3.9   1.5 0.00 0.00 27.6   1.3 61.2   2.4
West Santa Rosa (Hawk's Roost) 11/28/20 1015 47.7   3.7 57   11 33.2   2.0 0.7 NW | 322 1.8   2.1 0.00 0.00 28.0   1.6 48.0   3.9
Guerneville Rd West (Balletto) 11/28/20 1230 58.4   1.8 38   8 33.2   4.1 1.2 WNW | 283 3.1   1.1 0.00 0.00 25.7   1.5 59.6   1.2
Guerneville Rd East (Rich Ranch) 11/28/20 1230 59.3   2.5 36   5 32.1   1.9 - - - - - 26.6   1.5 59.7   2.5
Occidental Rd (Sebastopol) 11/28/20 1230 59.4   3.5 36   9 32.5   3.7 2.0 N | 352 4.6   1.5 0.00 0.00 25.8   1.9 60.2   3.6
Lower Westside Rd (Ranch 12) 11/28/20 1230 64.3   0.1 25   1 27.4   0.7 1.3 SSW | 211 3.1   1.4 0.00 0.00 27.0   1.3 64.8   0.8
Guerneville (Laughlin Rd) 11/28/20 1230 61.0   1.7 40   4 36.8   1.5 1.6 W | 264 2.2   1.2 0.00 0.00 26.2   0.6 61.2   2.1
Korbel (Winery) 11/28/20 1230 62.6   3.2 33   10 33.4   5.6 2.4 WNW | 292 3.8   0.4 0.00 0.00 28.4   0.2 63.5   2.9
Forestville (Shone Farms) 11/28/20 1230 60.0   1.5 36   9 32.9   5.4 1.3 W | 270 3.9   0.8 0.00 0.04 29.8   0.9 61.5   1.3
Forestville-NE (Ranch 30) 11/28/20 1230 63.9   0.3 32   3 33.8   2.5 1.1 S | 187 3.0   1.6 0.00 0.00 28.2   0.2 65.6   0.1
Graton-West (Dutton Ranch) 11/28/20 1230 61.3   3.4 32   4 31.2   0.1 0.9 ENE | 66 4.0   0.6 0.00 0.00 26.4   1.3 62.6   3.2
Graton-South (Mill Station Rd) 11/28/20 1230 59.0   3.6 34   5 30.7   0.7 1.0 NW | 325 3.3   0.6 0.00 0.00 24.8   2.0 60.2   3.8
Sexton Valley (Jacqueline's Blk) 11/28/20 1230 59.7   3.2 37   7 33.7   2.3 1.2 SE | 126 3.4   2.5 0.00 0.00 27.0   1.1 60.4   3.6
Sebastopol Hills (Burnside Rd) 11/28/20 1230 58.4   3.1 37   6 32.5   1.3 1.3 WSW | 249 4.1   3.2 0.00 0.00 36.8   2.8 59.8   2.1
Seaview/Fort Ross (Hirsch) 11/28/20 1230 57.4   1.0 37   12 31.2   8.5 2.3 WSW | 249 5.3   0.5 0.00 0.00 48.8   1.5 58.7   1.9
Max     66.0 40 36.8 2.9 - 5.8 0.00 0.04 48.8 68.4
Avg     60.7 34 31.7 1.6 - 4.0 0.00 - - -
Min     57.4 25 27.4 0.9 - 2.2 0.00 0.00 24.8 58.6

Southern Sonoma County Latest

14 Stations

15 Minute Data | America/Los_Angeles
as of 11/28/20 12:43 PM PST
Station Date Time Temp (°F) RH (%) Dew Pt (°F) Wind Spd (mph) Wind Dir (°) Wind Gust (mph) Latest Rain (In) Daily Rain (In) Daily Min Temp (°F) Daily Max Temp (°F)
Lower Bennett Valley 11/28/20 1230 58.6   4.0 37   15 32.6   9.1 5.5 NNW | 330 9.4   0.9 0.00 0.00 22.7   3.9 59.0   4.3
Kenwood (Kunde) 11/28/20 1230 65.2   0.4 26   2 29.3   1.3 0.2 SSE | 160 6.2   0.2 0.00 0.00 25.5   5.2 65.8   0.2
Sonoma Valley (Bedrock) 11/28/20 1230 61.5   0.3 28   2 28.2   1.6 2.7 SE | 137 5.4   0.3 0.00 0.01 27.2   4.3 62.1   0.8
Sonoma-West (Arnold) 11/28/20 1230 61.8   1.6 32   4 31.3   1.9 3.1 SE | 143 6.1   1.2 0.00 0.00 27.6   4.0 62.4   1.8
Schellville 11/28/20 1230 63.0   0.5 30   3 31.1   2.0 1.4 S | 179 4.8   3.4 0.00 0.00 26.2   3.8 63.9   0.3
Sonoma-SE (Napoli) 11/28/20 1230 62.7   0.2 30   5 30.9   4.0 3.4 S | 178 6.8   0.3 0.00 0.00 27.1   4.7 63.2   0.3
Carneros (Ranch 71) 11/28/20 1230 60.6   0.4 32   4 31.0   3.3 2.4 SSE | 149 6.0   0.5 0.00 0.00 40.2   6.5 61.1   0.4
Carneros Upper (Ranch 81) 11/28/20 1230 61.3   0.8 31   4 30.7   4.2 3.5 SSE | 167 6.1   2.1 - - 41.0   5.2 62.6   1.4
Carneros Lower (Ranch 81) 11/28/20 1230 62.5   1.3 33   4 32.9   4.4 2.5 S | 180 6.0   1.8 0.00 0.00 28.1   3.8 63.0   1.0
Rohnert Park-West (Stony Point) 11/28/20 1230 58.2   3.5 40   9 33.8   3.3 1.9 WNW | 288 4.4   0.2 0.00 0.00 24.1   1.3 59.0   3.5
Penngrove (Asellus) 11/28/20 1230 59.1   4.6 37   13 32.7   6.9 2.6 NNW | 345 5.3   0.1 0.00 0.00 26.1   2.6 60.6   5.0
Roger's Creek (Ranch 50) 11/28/20 1230 58.6   1.4 36   10 31.8   7.0 2.5 WSW | 249 6.6   1.1 0.00 0.00 41.7   5.1 59.1   1.4
Petaluma (Ranch 10) 11/28/20 1230 62.9   2.9 32   11 32.6   8.2 1.7 SW | 227 4.9   0.2 0.00 0.00 25.5   1.6 63.4   3.2
Lakeville (Ranch 47) 11/28/20 1230 58.1   1.4 36   8 31.4   5.2 4.3 SW | 218 7.9   1.7 0.00 0.00 27.1   0.4 58.6   1.6
Max     65.2 40 33.8 5.5 - 9.4 0.00 0.01 41.7 65.8
Avg     61.0 33 31.4 2.7 - 6.1 0.00 - - -
Min     58.1 26 28.2 0.2 - 4.4 0.00 0.00 22.7 58.6

Latest Observations

Map

Hourly Data